Česky Dansk Deutsch English Español Suomi Français Magyar Italiano Nederlands norsk Polski Português svenska Türkçe

 

Het Weer

Jujuy Aerodrome (Argentinië)

21:00, 21 augustus 2016 (GMT)

NWNNE
WE
SWSSE
Home            
Jujuy Aerodrome Salta Aerodrome Oran Aerodrome Rivadavia Tartagal Aerodrome La Quiaca Observatorio Tucuman Aerodrome Yacuiba Tarija Santiago Del Estero Aero. Villamontes Las Lomitas Catamarca Aero. Tinogasta Camiri Nueva Asuncion Mariscal Estigarribia Presidencia Roque Saenz Pena Aerodrome Potosi Antofagasta La Rioja Aero. Chilecito Chanaral

Om een weerknop op uw website of weblog te plaatsen, copieer onderstaande code en plak die in uw pagina. In het eerste vakje staat HTML-code, in het tweede vakje UBB-code.


Add to Google

Details

Wind speed:2 bf, 6 kn, 3.1 m/s, 6.9 miles/h, 11.1 km/h
Wind direction:NNE, 030° - ESE, 120°
Visibility:Greater than 10000 m, 10 km, 32800 ft, 6.2 miles
Clouds:CAVOC
Temperature:17°C, 63°F
Dew-point:1°C, 34°F
Atmospheric pressure:1027 hPa, 770.3 mmHg, 30.33 inHg, 1.014 atm
Relative humidity:33.9 %
METAR:SASJ 212100Z 05006KT 030V120 CAVOK 17/01 Q1027

Snelkoppelingen

Actuele weersinformatie van de hele wereld. Voeg locaties toe met het plus (+) symbool. Deze snelkoppelingen kunnen worden toegevoegd aan Google.

Lid van de Technetium groep

website free tracking
StatCounter NetStat W3C Validator

20-01-2021 03:15:13
astro.technetium.be money.technetium.be phote.technetium.be tafeltennistafel.technetium.be www.ligfiets.net